Terminal Aerodrome Forecast
Issued by NWS

Home | Current Version | Previous Version | Text Only | Print | Product List | Glossary On
Versions: 1 2 3 4 5 6 7 8 9 10 11 12 13 14 15 16 17 18 19 20 21 22 23 24 25 26 27
000
FTUS44 KOUN 200522
TAFPNC
TAF
KPNC 200522Z 2006/2106 15010KT P6SM SCT025 BKN200
     FM200900 VRB03KT 4SM BR SCT008
     FM201300 18008KT P6SM BKN012
     FM201600 18010KT P6SM SCT040
     FM210000 14008KT P6SM SCT050=

USA.gov is the U.S. government's official web portal to all federal, state and local government web resources and services.